Florence, Mississippi
Current Conditions -  °F | °C
As of 2:54 PM on Tuesday 21 Oct 2014 (Local Time) from KJAN Reporting Station
Clear Clear  
Wind Chill: 26°   Ceiling: Unl
Heat Index: 26°   Visibility: 10mi
Dew Point: 13°   Wind: 5mph
Humidity: 45%   Direction: 50°NE
Pressure: 30.02"   Gusts: NA
Location:  32.15°N, 90.13°W
Report Text: KJAN 211954Z 05004KT 10SM CLR 26/13 A3002 RMK AO2 SLP163 T02560128
Loading
Personal Weather Stations






























Interactive Weather Map
Tropical Storm Tracking
New forecast layout! Learn more

10-Day Weather Forecast

Advertisements
Track Severe Weather on mobile